sensor_id;sensor_type;location;lat;lon;timestamp;P1;durP1;ratioP1;P2;durP2;ratioP2
59042;SDS011;44826;51.596;5.624;2023-11-21T00:00:48;13.02;;;8.05;;
59042;SDS011;44826;51.596;5.624;2023-11-21T00:03:13;14.57;;;7.70;;
59042;SDS011;44826;51.596;5.624;2023-11-21T00:05:40;14.38;;;7.75;;
59042;SDS011;44826;51.596;5.624;2023-11-21T00:08:08;12.85;;;7.45;;
59042;SDS011;44826;51.596;5.624;2023-11-21T00:10:34;13.00;;;7.43;;
59042;SDS011;44826;51.596;5.624;2023-11-21T00:13:00;12.02;;;6.65;;
59042;SDS011;44826;51.596;5.624;2023-11-21T00:15:27;12.48;;;7.07;;
59042;SDS011;44826;51.596;5.624;2023-11-21T00:17:52;12.07;;;6.97;;
59042;SDS011;44826;51.596;5.624;2023-11-21T00:20:17;11.32;;;6.90;;
59042;SDS011;44826;51.596;5.624;2023-11-21T00:22:42;12.00;;;6.70;;
59042;SDS011;44826;51.596;5.624;2023-11-21T00:25:08;14.85;;;6.95;;
59042;SDS011;44826;51.596;5.624;2023-11-21T00:27:34;11.73;;;6.90;;
59042;SDS011;44826;51.596;5.624;2023-11-21T00:30:03;12.20;;;6.72;;
59042;SDS011;44826;51.596;5.624;2023-11-21T00:32:33;11.52;;;6.50;;
59042;SDS011;44826;51.596;5.624;2023-11-21T00:34:58;12.18;;;6.93;;
59042;SDS011;44826;51.596;5.624;2023-11-21T00:37:24;12.90;;;7.05;;
59042;SDS011;44826;51.596;5.624;2023-11-21T00:39:49;14.30;;;6.93;;
59042;SDS011;44826;51.596;5.624;2023-11-21T00:42:15;12.95;;;6.97;;
59042;SDS011;44826;51.596;5.624;2023-11-21T00:44:40;12.20;;;6.65;;
59042;SDS011;44826;51.596;5.624;2023-11-21T00:47:05;12.48;;;6.50;;
59042;SDS011;44826;51.596;5.624;2023-11-21T00:49:30;11.45;;;6.55;;
59042;SDS011;44826;51.596;5.624;2023-11-21T00:51:57;11.55;;;6.90;;
59042;SDS011;44826;51.596;5.624;2023-11-21T00:54:23;11.90;;;6.88;;
59042;SDS011;44826;51.596;5.624;2023-11-21T00:56:48;12.85;;;6.85;;
59042;SDS011;44826;51.596;5.624;2023-11-21T00:59:13;11.40;;;6.78;;
59042;SDS011;44826;51.596;5.624;2023-11-21T01:01:39;15.57;;;5.70;;
59042;SDS011;44826;51.596;5.624;2023-11-21T01:04:04;9.98;;;5.95;;
59042;SDS011;44826;51.596;5.624;2023-11-21T01:06:31;11.63;;;6.32;;
59042;SDS011;44826;51.596;5.624;2023-11-21T01:08:57;11.48;;;6.78;;
59042;SDS011;44826;51.596;5.624;2023-11-21T01:11:22;12.07;;;6.75;;
59042;SDS011;44826;51.596;5.624;2023-11-21T01:13:47;12.82;;;6.78;;
59042;SDS011;44826;51.596;5.624;2023-11-21T01:16:12;12.30;;;6.85;;
59042;SDS011;44826;51.596;5.624;2023-11-21T01:18:38;11.32;;;6.65;;
59042;SDS011;44826;51.596;5.624;2023-11-21T01:21:03;12.05;;;6.65;;
59042;SDS011;44826;51.596;5.624;2023-11-21T01:23:29;11.57;;;6.93;;
59042;SDS011;44826;51.596;5.624;2023-11-21T01:25:55;10.68;;;6.45;;
59042;SDS011;44826;51.596;5.624;2023-11-21T01:28:21;10.85;;;6.80;;
59042;SDS011;44826;51.596;5.624;2023-11-21T01:30:47;11.85;;;6.50;;
59042;SDS011;44826;51.596;5.624;2023-11-21T01:33:13;13.52;;;6.97;;
59042;SDS011;44826;51.596;5.624;2023-11-21T01:35:40;11.40;;;6.50;;
59042;SDS011;44826;51.596;5.624;2023-11-21T01:38:06;10.55;;;6.05;;
59042;SDS011;44826;51.596;5.624;2023-11-21T01:40:33;8.70;;;5.60;;
59042;SDS011;44826;51.596;5.624;2023-11-21T01:42:58;9.55;;;5.50;;
59042;SDS011;44826;51.596;5.624;2023-11-21T01:45:23;12.25;;;5.90;;
59042;SDS011;44826;51.596;5.624;2023-11-21T01:47:50;9.13;;;5.18;;
59042;SDS011;44826;51.596;5.624;2023-11-21T01:50:16;10.10;;;5.63;;
59042;SDS011;44826;51.596;5.624;2023-11-21T01:52:47;9.88;;;5.85;;
59042;SDS011;44826;51.596;5.624;2023-11-21T01:55:14;11.45;;;6.43;;
59042;SDS011;44826;51.596;5.624;2023-11-21T01:57:43;12.40;;;5.97;;
59042;SDS011;44826;51.596;5.624;2023-11-21T02:00:08;9.43;;;5.65;;
59042;SDS011;44826;51.596;5.624;2023-11-21T02:05:09;10.30;;;5.72;;
59042;SDS011;44826;51.596;5.624;2023-11-21T02:07:37;8.73;;;5.43;;
59042;SDS011;44826;51.596;5.624;2023-11-21T02:10:02;11.55;;;6.72;;
59042;SDS011;44826;51.596;5.624;2023-11-21T02:12:29;12.38;;;6.47;;
59042;SDS011;44826;51.596;5.624;2023-11-21T02:14:54;13.45;;;6.90;;
59042;SDS011;44826;51.596;5.624;2023-11-21T02:17:20;14.38;;;7.40;;
59042;SDS011;44826;51.596;5.624;2023-11-21T02:19:46;14.70;;;7.20;;
59042;SDS011;44826;51.596;5.624;2023-11-21T02:22:12;13.82;;;7.35;;
59042;SDS011;44826;51.596;5.624;2023-11-21T02:24:41;16.33;;;7.28;;
59042;SDS011;44826;51.596;5.624;2023-11-21T02:27:07;12.80;;;7.55;;
59042;SDS011;44826;51.596;5.624;2023-11-21T02:29:32;15.20;;;8.20;;
59042;SDS011;44826;51.596;5.624;2023-11-21T02:31:58;13.63;;;7.68;;
59042;SDS011;44826;51.596;5.624;2023-11-21T02:34:24;20.52;;;8.68;;
59042;SDS011;44826;51.596;5.624;2023-11-21T02:36:50;13.63;;;7.72;;
59042;SDS011;44826;51.596;5.624;2023-11-21T02:39:16;16.45;;;8.23;;
59042;SDS011;44826;51.596;5.624;2023-11-21T02:41:42;14.30;;;7.13;;
59042;SDS011;44826;51.596;5.624;2023-11-21T02:44:08;21.85;;;9.13;;
59042;SDS011;44826;51.596;5.624;2023-11-21T02:46:34;15.93;;;8.65;;
59042;SDS011;44826;51.596;5.624;2023-11-21T02:49:01;16.55;;;8.85;;
59042;SDS011;44826;51.596;5.624;2023-11-21T02:51:27;13.60;;;8.30;;
59042;SDS011;44826;51.596;5.624;2023-11-21T02:53:53;15.98;;;8.52;;
59042;SDS011;44826;51.596;5.624;2023-11-21T02:56:18;16.15;;;8.27;;
59042;SDS011;44826;51.596;5.624;2023-11-21T02:58:44;16.83;;;8.10;;
59042;SDS011;44826;51.596;5.624;2023-11-21T03:01:09;12.05;;;7.55;;
59042;SDS011;44826;51.596;5.624;2023-11-21T03:03:36;13.13;;;8.15;;
59042;SDS011;44826;51.596;5.624;2023-11-21T03:06:05;14.77;;;8.00;;
59042;SDS011;44826;51.596;5.624;2023-11-21T03:08:31;17.20;;;7.75;;
59042;SDS011;44826;51.596;5.624;2023-11-21T03:10:57;13.82;;;7.95;;
59042;SDS011;44826;51.596;5.624;2023-11-21T03:13:22;14.63;;;8.13;;
59042;SDS011;44826;51.596;5.624;2023-11-21T03:15:47;14.88;;;8.30;;
59042;SDS011;44826;51.596;5.624;2023-11-21T03:18:13;16.52;;;7.72;;
59042;SDS011;44826;51.596;5.624;2023-11-21T03:20:38;15.52;;;9.00;;
59042;SDS011;44826;51.596;5.624;2023-11-21T03:23:04;14.60;;;7.45;;
59042;SDS011;44826;51.596;5.624;2023-11-21T03:25:30;11.98;;;7.50;;
59042;SDS011;44826;51.596;5.624;2023-11-21T03:27:56;12.73;;;7.38;;
59042;SDS011;44826;51.596;5.624;2023-11-21T03:30:21;12.55;;;7.18;;
59042;SDS011;44826;51.596;5.624;2023-11-21T03:32:46;11.13;;;7.00;;
59042;SDS011;44826;51.596;5.624;2023-11-21T03:35:12;12.70;;;7.13;;
59042;SDS011;44826;51.596;5.624;2023-11-21T03:37:37;11.30;;;7.18;;
59042;SDS011;44826;51.596;5.624;2023-11-21T03:40:06;11.65;;;7.15;;
59042;SDS011;44826;51.596;5.624;2023-11-21T03:42:33;10.63;;;6.75;;
59042;SDS011;44826;51.596;5.624;2023-11-21T03:44:58;15.77;;;7.53;;
59042;SDS011;44826;51.596;5.624;2023-11-21T03:47:23;16.38;;;7.32;;
59042;SDS011;44826;51.596;5.624;2023-11-21T03:49:49;14.38;;;7.85;;
59042;SDS011;44826;51.596;5.624;2023-11-21T03:52:14;11.75;;;7.30;;
59042;SDS011;44826;51.596;5.624;2023-11-21T03:54:40;14.07;;;7.55;;
59042;SDS011;44826;51.596;5.624;2023-11-21T03:57:05;13.95;;;7.68;;
59042;SDS011;44826;51.596;5.624;2023-11-21T03:59:30;14.63;;;7.35;;
59042;SDS011;44826;51.596;5.624;2023-11-21T04:01:56;12.35;;;7.63;;
59042;SDS011;44826;51.596;5.624;2023-11-21T04:04:24;12.95;;;7.25;;
59042;SDS011;44826;51.596;5.624;2023-11-21T04:06:50;12.77;;;7.95;;
59042;SDS011;44826;51.596;5.624;2023-11-21T04:09:16;14.93;;;7.80;;
59042;SDS011;44826;51.596;5.624;2023-11-21T04:11:42;12.10;;;7.78;;
59042;SDS011;44826;51.596;5.624;2023-11-21T04:14:07;10.73;;;7.28;;
59042;SDS011;44826;51.596;5.624;2023-11-21T04:16:33;11.00;;;7.55;;
59042;SDS011;44826;51.596;5.624;2023-11-21T04:18:58;14.07;;;7.43;;
59042;SDS011;44826;51.596;5.624;2023-11-21T04:21:24;11.20;;;7.50;;
59042;SDS011;44826;51.596;5.624;2023-11-21T04:23:49;15.82;;;7.25;;
59042;SDS011;44826;51.596;5.624;2023-11-21T04:26:15;10.63;;;7.43;;
59042;SDS011;44826;51.596;5.624;2023-11-21T04:28:40;10.25;;;6.68;;
59042;SDS011;44826;51.596;5.624;2023-11-21T04:31:06;10.15;;;6.90;;
59042;SDS011;44826;51.596;5.624;2023-11-21T04:33:32;12.68;;;7.07;;
59042;SDS011;44826;51.596;5.624;2023-11-21T04:35:57;14.18;;;7.30;;
59042;SDS011;44826;51.596;5.624;2023-11-21T04:38:22;11.60;;;6.78;;
59042;SDS011;44826;51.596;5.624;2023-11-21T04:40:48;10.30;;;6.95;;
59042;SDS011;44826;51.596;5.624;2023-11-21T04:43:13;11.95;;;6.78;;
59042;SDS011;44826;51.596;5.624;2023-11-21T04:45:38;11.82;;;7.10;;
59042;SDS011;44826;51.596;5.624;2023-11-21T04:48:05;12.98;;;6.97;;
59042;SDS011;44826;51.596;5.624;2023-11-21T04:50:31;10.00;;;7.03;;
59042;SDS011;44826;51.596;5.624;2023-11-21T04:52:57;11.73;;;6.72;;
59042;SDS011;44826;51.596;5.624;2023-11-21T04:55:22;10.52;;;6.82;;
59042;SDS011;44826;51.596;5.624;2023-11-21T04:57:47;9.48;;;6.78;;
59042;SDS011;44826;51.596;5.624;2023-11-21T05:00:13;13.82;;;6.53;;
59042;SDS011;44826;51.596;5.624;2023-11-21T05:02:39;10.60;;;6.95;;
59042;SDS011;44826;51.596;5.624;2023-11-21T05:05:06;13.30;;;7.38;;
59042;SDS011;44826;51.596;5.624;2023-11-21T05:07:32;14.23;;;6.93;;
59042;SDS011;44826;51.596;5.624;2023-11-21T05:10:00;10.65;;;7.00;;
59042;SDS011;44826;51.596;5.624;2023-11-21T05:12:30;11.50;;;6.90;;
59042;SDS011;44826;51.596;5.624;2023-11-21T05:14:58;11.18;;;7.13;;
59042;SDS011;44826;51.596;5.624;2023-11-21T05:17:23;13.93;;;7.30;;
59042;SDS011;44826;51.596;5.624;2023-11-21T05:19:48;11.32;;;7.28;;
59042;SDS011;44826;51.596;5.624;2023-11-21T05:22:14;10.27;;;6.70;;
59042;SDS011;44826;51.596;5.624;2023-11-21T05:24:39;11.13;;;6.85;;
59042;SDS011;44826;51.596;5.624;2023-11-21T05:27:05;11.77;;;7.10;;
59042;SDS011;44826;51.596;5.624;2023-11-21T05:29:30;11.98;;;7.07;;
59042;SDS011;44826;51.596;5.624;2023-11-21T05:31:56;12.93;;;7.47;;
59042;SDS011;44826;51.596;5.624;2023-11-21T05:34:21;10.77;;;7.13;;
59042;SDS011;44826;51.596;5.624;2023-11-21T05:36:48;11.32;;;7.78;;
59042;SDS011;44826;51.596;5.624;2023-11-21T05:39:14;12.18;;;8.15;;
59042;SDS011;44826;51.596;5.624;2023-11-21T05:41:42;11.60;;;7.55;;
59042;SDS011;44826;51.596;5.624;2023-11-21T05:44:07;10.55;;;7.15;;
59042;SDS011;44826;51.596;5.624;2023-11-21T05:46:32;11.57;;;7.50;;
59042;SDS011;44826;51.596;5.624;2023-11-21T05:48:58;12.95;;;8.13;;
59042;SDS011;44826;51.596;5.624;2023-11-21T05:51:23;12.20;;;7.95;;
59042;SDS011;44826;51.596;5.624;2023-11-21T05:53:48;10.40;;;7.07;;
59042;SDS011;44826;51.596;5.624;2023-11-21T05:56:13;12.10;;;7.60;;
59042;SDS011;44826;51.596;5.624;2023-11-21T05:58:39;14.15;;;8.68;;
59042;SDS011;44826;51.596;5.624;2023-11-21T06:01:05;11.88;;;7.93;;
59042;SDS011;44826;51.596;5.624;2023-11-21T06:03:37;12.07;;;8.00;;
59042;SDS011;44826;51.596;5.624;2023-11-21T06:06:02;12.68;;;7.90;;
59042;SDS011;44826;51.596;5.624;2023-11-21T06:08:29;13.25;;;8.57;;
59042;SDS011;44826;51.596;5.624;2023-11-21T06:10:54;12.60;;;8.15;;
59042;SDS011;44826;51.596;5.624;2023-11-21T06:13:20;13.43;;;8.25;;
59042;SDS011;44826;51.596;5.624;2023-11-21T06:15:49;12.40;;;8.23;;
59042;SDS011;44826;51.596;5.624;2023-11-21T06:18:14;14.13;;;8.52;;
59042;SDS011;44826;51.596;5.624;2023-11-21T06:20:40;13.00;;;7.68;;
59042;SDS011;44826;51.596;5.624;2023-11-21T06:23:05;14.40;;;8.07;;
59042;SDS011;44826;51.596;5.624;2023-11-21T06:25:30;13.20;;;8.20;;
59042;SDS011;44826;51.596;5.624;2023-11-21T06:27:58;13.70;;;8.68;;
59042;SDS011;44826;51.596;5.624;2023-11-21T06:30:23;21.27;;;8.82;;
59042;SDS011;44826;51.596;5.624;2023-11-21T06:32:48;13.57;;;8.27;;
59042;SDS011;44826;51.596;5.624;2023-11-21T06:35:14;14.00;;;9.15;;
59042;SDS011;44826;51.596;5.624;2023-11-21T06:37:40;16.15;;;9.15;;
59042;SDS011;44826;51.596;5.624;2023-11-21T06:40:06;13.73;;;8.70;;
59042;SDS011;44826;51.596;5.624;2023-11-21T06:42:32;14.07;;;8.38;;
59042;SDS011;44826;51.596;5.624;2023-11-21T06:44:58;14.75;;;8.57;;
59042;SDS011;44826;51.596;5.624;2023-11-21T06:47:24;14.55;;;8.52;;
59042;SDS011;44826;51.596;5.624;2023-11-21T06:49:50;15.50;;;8.73;;
59042;SDS011;44826;51.596;5.624;2023-11-21T06:52:16;14.32;;;8.70;;
59042;SDS011;44826;51.596;5.624;2023-11-21T06:54:42;16.25;;;8.82;;
59042;SDS011;44826;51.596;5.624;2023-11-21T06:57:07;17.80;;;9.02;;
59042;SDS011;44826;51.596;5.624;2023-11-21T06:59:33;16.52;;;9.25;;
59042;SDS011;44826;51.596;5.624;2023-11-21T07:01:58;15.18;;;8.65;;
59042;SDS011;44826;51.596;5.624;2023-11-21T07:04:24;14.75;;;8.82;;
59042;SDS011;44826;51.596;5.624;2023-11-21T07:06:50;15.88;;;9.02;;
59042;SDS011;44826;51.596;5.624;2023-11-21T07:09:16;15.80;;;8.93;;
59042;SDS011;44826;51.596;5.624;2023-11-21T07:11:41;16.25;;;9.38;;
59042;SDS011;44826;51.596;5.624;2023-11-21T07:14:07;18.08;;;9.68;;
59042;SDS011;44826;51.596;5.624;2023-11-21T07:16:34;18.85;;;9.60;;
59042;SDS011;44826;51.596;5.624;2023-11-21T07:19:02;19.15;;;9.77;;
59042;SDS011;44826;51.596;5.624;2023-11-21T07:21:29;15.25;;;9.30;;
59042;SDS011;44826;51.596;5.624;2023-11-21T07:23:54;18.00;;;9.48;;
59042;SDS011;44826;51.596;5.624;2023-11-21T07:26:20;14.70;;;8.77;;
59042;SDS011;44826;51.596;5.624;2023-11-21T07:28:45;16.30;;;9.43;;
59042;SDS011;44826;51.596;5.624;2023-11-21T07:31:10;16.98;;;9.23;;
59042;SDS011;44826;51.596;5.624;2023-11-21T07:33:37;15.77;;;8.85;;
59042;SDS011;44826;51.596;5.624;2023-11-21T07:36:02;17.58;;;8.98;;
59042;SDS011;44826;51.596;5.624;2023-11-21T07:38:28;16.25;;;9.02;;
59042;SDS011;44826;51.596;5.624;2023-11-21T07:40:53;15.20;;;8.50;;
59042;SDS011;44826;51.596;5.624;2023-11-21T07:43:18;13.82;;;8.00;;
59042;SDS011;44826;51.596;5.624;2023-11-21T07:45:44;15.40;;;8.60;;
59042;SDS011;44826;51.596;5.624;2023-11-21T07:48:09;17.40;;;9.60;;
59042;SDS011;44826;51.596;5.624;2023-11-21T07:50:35;14.75;;;8.35;;
59042;SDS011;44826;51.596;5.624;2023-11-21T07:53:00;17.02;;;8.90;;
59042;SDS011;44826;51.596;5.624;2023-11-21T07:55:25;17.17;;;9.25;;
59042;SDS011;44826;51.596;5.624;2023-11-21T07:57:51;16.45;;;8.55;;
59042;SDS011;44826;51.596;5.624;2023-11-21T08:00:17;14.05;;;7.80;;
59042;SDS011;44826;51.596;5.624;2023-11-21T08:02:42;14.48;;;8.15;;
59042;SDS011;44826;51.596;5.624;2023-11-21T08:05:08;15.57;;;8.30;;
59042;SDS011;44826;51.596;5.624;2023-11-21T08:07:33;15.68;;;8.68;;
59042;SDS011;44826;51.596;5.624;2023-11-21T08:09:59;15.60;;;8.07;;
59042;SDS011;44826;51.596;5.624;2023-11-21T08:12:24;14.05;;;8.50;;
59042;SDS011;44826;51.596;5.624;2023-11-21T08:14:52;15.57;;;8.07;;
59042;SDS011;44826;51.596;5.624;2023-11-21T08:17:18;15.27;;;8.18;;
59042;SDS011;44826;51.596;5.624;2023-11-21T08:19:45;14.52;;;8.10;;
59042;SDS011;44826;51.596;5.624;2023-11-21T08:22:14;15.30;;;7.97;;
59042;SDS011;44826;51.596;5.624;2023-11-21T08:24:41;13.15;;;7.82;;
59042;SDS011;44826;51.596;5.624;2023-11-21T08:27:06;14.63;;;7.68;;
59042;SDS011;44826;51.596;5.624;2023-11-21T08:29:32;13.65;;;7.70;;
59042;SDS011;44826;51.596;5.624;2023-11-21T08:31:57;14.45;;;8.13;;
59042;SDS011;44826;51.596;5.624;2023-11-21T08:34:22;13.98;;;8.27;;
59042;SDS011;44826;51.596;5.624;2023-11-21T08:36:48;17.45;;;8.57;;
59042;SDS011;44826;51.596;5.624;2023-11-21T08:39:16;13.27;;;7.60;;
59042;SDS011;44826;51.596;5.624;2023-11-21T08:41:43;16.50;;;8.18;;
59042;SDS011;44826;51.596;5.624;2023-11-21T08:44:09;14.05;;;8.10;;
59042;SDS011;44826;51.596;5.624;2023-11-21T08:46:34;15.63;;;8.10;;
59042;SDS011;44826;51.596;5.624;2023-11-21T08:49:02;15.82;;;8.80;;
59042;SDS011;44826;51.596;5.624;2023-11-21T08:51:28;14.88;;;7.95;;
59042;SDS011;44826;51.596;5.624;2023-11-21T08:53:53;17.23;;;8.52;;
59042;SDS011;44826;51.596;5.624;2023-11-21T08:56:19;16.85;;;9.07;;
59042;SDS011;44826;51.596;5.624;2023-11-21T08:58:45;16.90;;;9.00;;
59042;SDS011;44826;51.596;5.624;2023-11-21T09:01:11;16.40;;;8.48;;
59042;SDS011;44826;51.596;5.624;2023-11-21T09:03:37;17.38;;;8.75;;
59042;SDS011;44826;51.596;5.624;2023-11-21T09:06:03;16.90;;;9.02;;
59042;SDS011;44826;51.596;5.624;2023-11-21T09:08:29;19.02;;;9.13;;
59042;SDS011;44826;51.596;5.624;2023-11-21T09:10:54;19.23;;;9.82;;
59042;SDS011;44826;51.596;5.624;2023-11-21T09:13:20;16.63;;;8.57;;
59042;SDS011;44826;51.596;5.624;2023-11-21T09:15:45;17.45;;;9.18;;
59042;SDS011;44826;51.596;5.624;2023-11-21T09:18:14;22.17;;;9.45;;
59042;SDS011;44826;51.596;5.624;2023-11-21T09:20:40;17.42;;;9.75;;
59042;SDS011;44826;51.596;5.624;2023-11-21T09:23:06;18.73;;;9.52;;
59042;SDS011;44826;51.596;5.624;2023-11-21T09:25:32;18.38;;;9.02;;
59042;SDS011;44826;51.596;5.624;2023-11-21T09:27:57;19.00;;;9.75;;
59042;SDS011;44826;51.596;5.624;2023-11-21T09:30:23;18.60;;;9.48;;
59042;SDS011;44826;51.596;5.624;2023-11-21T09:32:49;18.90;;;9.75;;
59042;SDS011;44826;51.596;5.624;2023-11-21T09:35:15;20.38;;;10.00;;
59042;SDS011;44826;51.596;5.624;2023-11-21T09:37:42;21.63;;;10.30;;
59042;SDS011;44826;51.596;5.624;2023-11-21T09:40:10;21.23;;;10.23;;
59042;SDS011;44826;51.596;5.624;2023-11-21T09:42:39;20.50;;;10.02;;
59042;SDS011;44826;51.596;5.624;2023-11-21T09:45:11;20.35;;;10.13;;
59042;SDS011;44826;51.596;5.624;2023-11-21T09:47:43;21.58;;;10.77;;
59042;SDS011;44826;51.596;5.624;2023-11-21T09:50:08;23.02;;;10.32;;
59042;SDS011;44826;51.596;5.624;2023-11-21T09:52:41;26.55;;;10.88;;
59042;SDS011;44826;51.596;5.624;2023-11-21T09:55:15;21.67;;;10.75;;
59042;SDS011;44826;51.596;5.624;2023-11-21T09:57:43;22.30;;;10.45;;
59042;SDS011;44826;51.596;5.624;2023-11-21T10:00:10;24.17;;;10.82;;
59042;SDS011;44826;51.596;5.624;2023-11-21T10:02:37;25.02;;;11.68;;
59042;SDS011;44826;51.596;5.624;2023-11-21T10:05:05;25.67;;;11.23;;
59042;SDS011;44826;51.596;5.624;2023-11-21T10:07:31;27.13;;;10.82;;
59042;SDS011;44826;51.596;5.624;2023-11-21T10:09:59;27.23;;;11.60;;
59042;SDS011;44826;51.596;5.624;2023-11-21T10:12:27;22.38;;;11.13;;
59042;SDS011;44826;51.596;5.624;2023-11-21T10:14:53;25.90;;;11.32;;
59042;SDS011;44826;51.596;5.624;2023-11-21T10:17:22;25.67;;;11.07;;
59042;SDS011;44826;51.596;5.624;2023-11-21T10:19:51;23.55;;;11.13;;
59042;SDS011;44826;51.596;5.624;2023-11-21T10:22:18;25.90;;;11.48;;
59042;SDS011;44826;51.596;5.624;2023-11-21T10:24:45;26.48;;;10.68;;
59042;SDS011;44826;51.596;5.624;2023-11-21T10:27:10;27.58;;;11.50;;
59042;SDS011;44826;51.596;5.624;2023-11-21T10:29:36;26.10;;;11.27;;
59042;SDS011;44826;51.596;5.624;2023-11-21T10:32:02;23.92;;;11.27;;
59042;SDS011;44826;51.596;5.624;2023-11-21T10:34:28;25.70;;;11.32;;
59042;SDS011;44826;51.596;5.624;2023-11-21T10:36:54;25.02;;;11.93;;
59042;SDS011;44826;51.596;5.624;2023-11-21T10:39:22;24.33;;;11.65;;
59042;SDS011;44826;51.596;5.624;2023-11-21T10:41:49;26.05;;;11.73;;
59042;SDS011;44826;51.596;5.624;2023-11-21T10:44:16;26.92;;;11.93;;
59042;SDS011;44826;51.596;5.624;2023-11-21T10:46:53;24.83;;;11.20;;
59042;SDS011;44826;51.596;5.624;2023-11-21T10:49:24;24.35;;;11.90;;
59042;SDS011;44826;51.596;5.624;2023-11-21T10:51:50;25.90;;;11.55;;
59042;SDS011;44826;51.596;5.624;2023-11-21T10:54:18;23.17;;;11.30;;
59042;SDS011;44826;51.596;5.624;2023-11-21T10:56:53;23.67;;;11.50;;
59042;SDS011;44826;51.596;5.624;2023-11-21T10:59:22;25.35;;;11.00;;
59042;SDS011;44826;51.596;5.624;2023-11-21T11:01:50;22.95;;;10.75;;
59042;SDS011;44826;51.596;5.624;2023-11-21T11:04:18;20.92;;;11.23;;
59042;SDS011;44826;51.596;5.624;2023-11-21T11:06:44;23.98;;;11.15;;
59042;SDS011;44826;51.596;5.624;2023-11-21T11:09:16;22.40;;;10.80;;
59042;SDS011;44826;51.596;5.624;2023-11-21T11:11:42;22.42;;;10.60;;
59042;SDS011;44826;51.596;5.624;2023-11-21T11:14:12;24.25;;;10.93;;
59042;SDS011;44826;51.596;5.624;2023-11-21T11:16:39;24.73;;;11.43;;
59042;SDS011;44826;51.596;5.624;2023-11-21T11:19:11;23.45;;;11.05;;
59042;SDS011;44826;51.596;5.624;2023-11-21T11:21:42;23.17;;;10.63;;
59042;SDS011;44826;51.596;5.624;2023-11-21T11:32:18;22.08;;;10.90;;
59042;SDS011;44826;51.596;5.624;2023-11-21T11:35:07;21.50;;;10.98;;
59042;SDS011;44826;51.596;5.624;2023-11-21T11:37:41;20.50;;;9.70;;
59042;SDS011;44826;51.596;5.624;2023-11-21T11:40:07;20.17;;;9.70;;
59042;SDS011;44826;51.596;5.624;2023-11-21T11:42:36;23.63;;;10.45;;
59042;SDS011;44826;51.596;5.624;2023-11-21T11:45:01;25.25;;;10.35;;
59042;SDS011;44826;51.596;5.624;2023-11-21T11:47:30;20.95;;;10.07;;
59042;SDS011;44826;51.596;5.624;2023-11-21T11:50:06;21.73;;;10.52;;
59042;SDS011;44826;51.596;5.624;2023-11-21T11:52:38;23.35;;;10.60;;
59042;SDS011;44826;51.596;5.624;2023-11-21T11:55:09;20.17;;;10.35;;
59042;SDS011;44826;51.596;5.624;2023-11-21T11:57:36;17.80;;;9.88;;
59042;SDS011;44826;51.596;5.624;2023-11-21T12:03:00;16.42;;;8.93;;
59042;SDS011;44826;51.596;5.624;2023-11-21T12:05:31;16.27;;;9.38;;
59042;SDS011;44826;51.596;5.624;2023-11-21T12:07:59;17.13;;;8.88;;
59042;SDS011;44826;51.596;5.624;2023-11-21T12:10:30;15.25;;;8.38;;
59042;SDS011;44826;51.596;5.624;2023-11-21T12:12:57;17.00;;;8.50;;
59042;SDS011;44826;51.596;5.624;2023-11-21T12:15:25;14.73;;;7.65;;
59042;SDS011;44826;51.596;5.624;2023-11-21T12:17:50;14.60;;;7.85;;
59042;SDS011;44826;51.596;5.624;2023-11-21T12:20:19;13.07;;;7.60;;
59042;SDS011;44826;51.596;5.624;2023-11-21T12:22:47;12.90;;;7.35;;
59042;SDS011;44826;51.596;5.624;2023-11-21T12:25:17;14.77;;;8.13;;
59042;SDS011;44826;51.596;5.624;2023-11-21T12:27:47;13.82;;;7.35;;
59042;SDS011;44826;51.596;5.624;2023-11-21T12:30:14;12.98;;;7.35;;
59042;SDS011;44826;51.596;5.624;2023-11-21T12:32:47;14.93;;;8.20;;
59042;SDS011;44826;51.596;5.624;2023-11-21T12:35:14;14.30;;;7.57;;
59042;SDS011;44826;51.596;5.624;2023-11-21T12:37:39;13.20;;;7.25;;
59042;SDS011;44826;51.596;5.624;2023-11-21T12:40:08;13.20;;;7.85;;
59042;SDS011;44826;51.596;5.624;2023-11-21T12:42:36;13.45;;;7.80;;
59042;SDS011;44826;51.596;5.624;2023-11-21T12:45:27;13.95;;;7.50;;
59042;SDS011;44826;51.596;5.624;2023-11-21T12:48:05;15.20;;;8.00;;
59042;SDS011;44826;51.596;5.624;2023-11-21T12:50:35;13.20;;;7.45;;
59042;SDS011;44826;51.596;5.624;2023-11-21T12:53:05;16.00;;;8.65;;
59042;SDS011;44826;51.596;5.624;2023-11-21T12:58:02;16.38;;;7.93;;
59042;SDS011;44826;51.596;5.624;2023-11-21T13:03:05;14.60;;;8.52;;
59042;SDS011;44826;51.596;5.624;2023-11-21T13:05:33;16.83;;;8.93;;
59042;SDS011;44826;51.596;5.624;2023-11-21T13:08:03;19.00;;;9.95;;
59042;SDS011;44826;51.596;5.624;2023-11-21T13:10:32;17.50;;;9.50;;
59042;SDS011;44826;51.596;5.624;2023-11-21T13:13:01;16.00;;;9.43;;
59042;SDS011;44826;51.596;5.624;2023-11-21T13:15:30;17.52;;;9.07;;
59042;SDS011;44826;51.596;5.624;2023-11-21T13:18:00;17.20;;;9.63;;
59042;SDS011;44826;51.596;5.624;2023-11-21T13:20:25;17.05;;;9.10;;
59042;SDS011;44826;51.596;5.624;2023-11-21T13:22:55;18.48;;;9.15;;
59042;SDS011;44826;51.596;5.624;2023-11-21T13:25:26;16.63;;;9.60;;
59042;SDS011;44826;51.596;5.624;2023-11-21T13:27:53;17.13;;;9.93;;
59042;SDS011;44826;51.596;5.624;2023-11-21T13:30:25;15.90;;;8.73;;
59042;SDS011;44826;51.596;5.624;2023-11-21T13:32:55;17.05;;;9.25;;
59042;SDS011;44826;51.596;5.624;2023-11-21T13:35:26;16.92;;;8.77;;
59042;SDS011;44826;51.596;5.624;2023-11-21T13:38:33;16.75;;;8.82;;
59042;SDS011;44826;51.596;5.624;2023-11-21T13:40:57;16.35;;;8.30;;
59042;SDS011;44826;51.596;5.624;2023-11-21T13:43:24;15.32;;;7.68;;
59042;SDS011;44826;51.596;5.624;2023-11-21T13:45:51;14.10;;;7.28;;
59042;SDS011;44826;51.596;5.624;2023-11-21T13:48:24;12.82;;;7.03;;
59042;SDS011;44826;51.596;5.624;2023-11-21T13:50:56;13.38;;;7.40;;
59042;SDS011;44826;51.596;5.624;2023-11-21T13:53:35;13.75;;;7.20;;
59042;SDS011;44826;51.596;5.624;2023-11-21T13:56:02;12.85;;;6.80;;
59042;SDS011;44826;51.596;5.624;2023-11-21T13:58:28;12.32;;;6.63;;
59042;SDS011;44826;51.596;5.624;2023-11-21T14:01:16;13.02;;;6.13;;
59042;SDS011;44826;51.596;5.624;2023-11-21T14:04:17;10.13;;;5.82;;
59042;SDS011;44826;51.596;5.624;2023-11-21T14:06:42;10.80;;;6.05;;
59042;SDS011;44826;51.596;5.624;2023-11-21T14:09:15;10.68;;;5.85;;
59042;SDS011;44826;51.596;5.624;2023-11-21T14:11:54;10.07;;;5.50;;
59042;SDS011;44826;51.596;5.624;2023-11-21T14:14:22;10.50;;;5.55;;
59042;SDS011;44826;51.596;5.624;2023-11-21T14:16:50;9.43;;;5.80;;
59042;SDS011;44826;51.596;5.624;2023-11-21T14:19:15;10.68;;;5.78;;
59042;SDS011;44826;51.596;5.624;2023-11-21T14:21:42;10.90;;;5.80;;
59042;SDS011;44826;51.596;5.624;2023-11-21T14:24:11;10.82;;;5.43;;
59042;SDS011;44826;51.596;5.624;2023-11-21T14:26:43;11.57;;;6.13;;
59042;SDS011;44826;51.596;5.624;2023-11-21T14:29:11;12.25;;;6.93;;
59042;SDS011;44826;51.596;5.624;2023-11-21T14:31:39;11.55;;;6.40;;
59042;SDS011;44826;51.596;5.624;2023-11-21T14:34:08;10.90;;;5.95;;
59042;SDS011;44826;51.596;5.624;2023-11-21T14:36:34;10.32;;;5.78;;
59042;SDS011;44826;51.596;5.624;2023-11-21T14:39:01;12.85;;;6.28;;
59042;SDS011;44826;51.596;5.624;2023-11-21T14:41:27;9.43;;;5.28;;
59042;SDS011;44826;51.596;5.624;2023-11-21T14:43:54;8.68;;;5.03;;
59042;SDS011;44826;51.596;5.624;2023-11-21T14:46:22;9.13;;;5.20;;
59042;SDS011;44826;51.596;5.624;2023-11-21T14:48:47;8.02;;;4.88;;
59042;SDS011;44826;51.596;5.624;2023-11-21T14:51:23;9.13;;;5.38;;